createdAt,value
2022-08-04T00:00:39.624Z,99943.41
2022-08-04T00:05:50.090Z,99940.66
2022-08-04T00:10:54.582Z,99943.41
2022-08-04T00:16:00.382Z,99945.59
2022-08-04T00:21:04.909Z,99945.59
2022-08-04T00:26:06.309Z,99946.69
2022-08-04T00:31:13.217Z,99950.88
2022-08-04T00:36:17.404Z,99947.81
2022-08-04T00:41:56.550Z,99951.41
2022-08-04T00:47:18.878Z,99945.88
2022-08-04T00:52:42.588Z,99947.81
2022-08-04T00:58:05.621Z,99951.69
2022-08-04T01:03:11.764Z,99954.13
2022-08-04T01:08:22.028Z,99951.44
2022-08-04T01:13:34.502Z,99954.72
2022-08-04T01:18:57.748Z,99956.66
2022-08-04T01:24:24.752Z,99948.66
2022-08-04T01:29:31.051Z,99953.31
2022-08-04T01:34:52.838Z,99948.38
2022-08-04T01:40:02.027Z,99952.22
2022-08-04T01:45:05.677Z,99950.59
2022-08-04T01:50:12.021Z,99947.56
2022-08-04T01:55:14.217Z,99947.00
2022-08-04T02:00:23.079Z,99945.91
2022-08-04T02:05:25.593Z,99941.50
2022-08-04T02:11:05.069Z,99955.81
2022-08-04T02:16:12.530Z,99946.75
2022-08-04T02:21:13.940Z,99939.03
2022-08-04T02:26:22.584Z,99942.03
2022-08-04T02:31:31.458Z,99937.09
2022-08-04T02:36:40.417Z,99928.00
2022-08-04T02:41:41.979Z,99929.66
2022-08-04T02:46:43.394Z,99929.66
2022-08-04T02:51:50.744Z,99921.41
2022-08-04T02:56:53.177Z,99922.75
2022-08-04T03:01:58.252Z,99919.19
2022-08-04T03:07:25.052Z,99914.25
2022-08-04T03:12:58.857Z,99919.19
2022-08-04T03:18:14.130Z,99915.91
2022-08-04T03:23:30.720Z,99918.09
2022-08-04T03:29:02.501Z,99921.13
2022-08-04T03:34:25.882Z,99926.34
2022-08-04T03:39:52.285Z,99929.41
2022-08-04T03:45:24.513Z,99926.66
2022-08-04T03:51:35.941Z,99926.66
2022-08-04T03:57:09.397Z,99926.38
2022-08-04T04:02:24.118Z,99926.94
2022-08-04T04:07:58.252Z,99940.94
2022-08-04T04:13:24.542Z,99934.09
2022-08-04T04:18:54.542Z,99931.88
2022-08-04T04:24:20.145Z,99934.91
2022-08-04T04:29:35.025Z,99934.91
2022-08-04T04:34:46.970Z,99944.81
2022-08-04T04:40:08.556Z,99951.41
2022-08-04T04:45:12.741Z,99955.56
2022-08-04T04:50:23.533Z,99952.81
2022-08-04T04:55:35.702Z,99960.25
2022-08-04T05:00:46.021Z,99967.13
2022-08-04T05:06:18.305Z,99963.56
2022-08-04T05:11:58.889Z,99958.31
2022-08-04T05:17:17.989Z,99957.75
2022-08-04T05:22:25.253Z,99955.28
2022-08-04T05:27:39.719Z,99958.59
2022-08-04T05:33:00.008Z,99957.47
2022-08-04T05:38:03.116Z,99953.38
2022-08-04T05:43:04.800Z,99955.00
2022-08-04T05:48:07.577Z,99957.22
2022-08-04T05:53:09.839Z,99955.81
2022-08-04T05:58:13.638Z,99952.50
2022-08-04T06:03:15.036Z,99956.94
2022-08-04T06:08:16.466Z,99952.50
2022-08-04T06:13:48.488Z,99958.84
2022-08-04T06:20:02.192Z,99954.41
2022-08-04T06:24:04.517Z,99953.06
2022-08-04T06:29:10.993Z,99963.25
2022-08-04T06:34:13.773Z,99966.78
2022-08-04T06:39:15.195Z,99965.97
2022-08-04T06:44:16.633Z,99968.75
2022-08-04T06:49:18.061Z,99965.69
2022-08-04T06:54:19.477Z,99961.25
2022-08-04T06:59:22.147Z,99966.47
2022-08-04T07:04:23.557Z,99960.44
2022-08-04T07:09:24.961Z,99965.09
2022-08-04T07:14:26.960Z,99958.75
2022-08-04T07:19:28.369Z,99953.25
2022-08-04T07:24:31.209Z,99948.34
2022-08-04T07:29:34.709Z,99946.91
2022-08-04T07:34:36.129Z,99947.19
2022-08-04T07:39:47.974Z,99941.41
2022-08-04T07:44:50.025Z,99945.53
2022-08-04T07:49:56.571Z,99938.91
2022-08-04T07:54:59.256Z,99949.34
2022-08-04T08:00:01.013Z,99934.50
2022-08-04T08:05:02.753Z,99935.34
2022-08-04T08:10:04.289Z,99933.38
2022-08-04T08:15:07.320Z,99933.38
2022-08-04T08:20:11.801Z,99927.50
2022-08-04T08:25:31.825Z,99914.22
2022-08-04T08:30:33.577Z,99914.56
2022-08-04T08:35:51.146Z,99914.88
2022-08-04T08:40:58.945Z,99909.97
2022-08-04T08:46:48.013Z,99908.81
2022-08-04T08:52:04.089Z,99905.22
2022-08-04T08:57:11.345Z,99913.41
2022-08-04T09:02:34.950Z,99913.75
2022-08-04T09:08:07.041Z,99908.78
2022-08-04T09:13:21.330Z,99906.03
2022-08-04T09:18:28.304Z,99909.84
2022-08-04T09:23:51.407Z,99898.28
2022-08-04T09:29:26.346Z,99898.28
2022-08-04T09:34:32.041Z,99898.88
2022-08-04T09:39:37.451Z,99897.72
2022-08-04T09:45:06.235Z,99881.75
2022-08-04T09:50:28.242Z,99884.75
2022-08-04T09:55:31.664Z,99892.41
2022-08-04T10:00:41.290Z,99886.59
2022-08-04T10:06:01.265Z,99889.34
2022-08-04T10:11:21.556Z,99878.91
2022-08-04T10:16:58.501Z,99870.56
2022-08-04T10:22:29.336Z,99866.69
2022-08-04T10:27:46.154Z,99863.94
2022-08-04T10:33:09.625Z,99872.75
2022-08-04T10:38:29.805Z,99863.41
2022-08-04T10:43:51.985Z,99859.53
2022-08-04T10:48:57.796Z,99851.88
2022-08-04T10:54:32.921Z,99845.81
2022-08-04T11:00:11.718Z,99833.97
2022-08-04T11:05:51.943Z,99837.84
2022-08-04T11:11:11.733Z,99842.31
2022-08-04T11:16:55.033Z,99840.16
2022-08-04T11:22:25.375Z,99833.25
2022-08-04T11:27:43.681Z,99834.09
2022-08-04T11:32:51.968Z,99832.97
2022-08-04T11:38:02.453Z,99828.03
2022-08-04T11:43:09.952Z,99833.81
2022-08-04T11:48:13.716Z,99822.78
2022-08-04T11:53:16.894Z,99830.88
2022-08-04T11:58:18.805Z,99830.81
2022-08-04T12:04:11.405Z,99822.81
2022-08-04T12:09:20.344Z,99820.84
2022-08-04T12:14:38.697Z,99818.19
2022-08-04T12:20:03.895Z,99820.31
2022-08-04T12:25:13.033Z,99809.56
2022-08-04T12:30:59.318Z,99807.16
2022-08-04T12:36:10.622Z,99803.31
2022-08-04T12:41:03.583Z,99806.88
2022-08-04T12:46:06.337Z,99805.75
2022-08-04T12:51:30.881Z,99792.72
2022-08-04T12:56:30.489Z,99791.09
2022-08-04T13:02:07.249Z,99787.03
2022-08-04T13:07:01.977Z,99777.34
2022-08-04T13:12:06.073Z,99773.47
2022-08-04T13:17:08.555Z,99765.28
2022-08-04T13:22:10.204Z,99761.66
2022-08-04T13:27:16.418Z,99758.84
2022-08-04T13:32:22.407Z,99746.88
2022-08-04T13:37:26.521Z,99760.63
2022-08-04T13:42:28.501Z,99749.03
2022-08-04T13:47:31.776Z,99745.13
2022-08-04T13:52:33.593Z,99744.44
2022-08-04T13:57:36.804Z,99735.38
2022-08-04T14:02:45.391Z,99741.69
2022-08-04T14:07:51.411Z,99735.75
2022-08-04T14:12:53.019Z,99727.44
2022-08-04T14:17:54.441Z,99725.38
2022-08-04T14:22:57.517Z,99730.06
2022-08-04T14:27:58.946Z,99729.25
2022-08-04T14:34:02.085Z,99729.53
2022-08-04T14:38:24.573Z,99713.16
2022-08-04T14:43:26.189Z,99714.13
2022-08-04T14:48:27.599Z,99704.72
2022-08-04T14:53:31.858Z,99704.00
2022-08-04T14:58:39.444Z,99697.69
2022-08-04T15:03:50.853Z,99694.97
2022-08-04T15:08:55.949Z,99691.22
2022-08-04T15:13:57.496Z,99688.44
2022-08-04T15:19:00.080Z,99696.31
2022-08-04T15:24:02.382Z,99694.59
2022-08-04T15:29:17.937Z,99686.69
2022-08-04T15:34:19.541Z,99684.78
2022-08-04T15:39:25.891Z,99676.88
2022-08-04T15:44:55.165Z,99683.50
2022-08-04T15:50:11.128Z,99673.63
2022-08-04T15:55:35.144Z,99673.09
2022-08-04T16:00:50.081Z,99671.19
2022-08-04T16:05:51.548Z,99666.75
2022-08-04T16:10:53.193Z,99664.06
2022-08-04T16:15:55.522Z,99667.34
2022-08-04T16:21:03.610Z,99670.97
2022-08-04T16:26:05.038Z,99663.81
2022-08-04T16:31:07.069Z,99664.09
2022-08-04T16:36:10.778Z,99656.81
2022-08-04T16:41:12.311Z,99653.31
2022-08-04T16:46:21.789Z,99659.41
2022-08-04T16:51:23.457Z,99652.78
2022-08-04T16:56:29.484Z,99647.28
2022-08-04T17:01:33.173Z,99646.75
2022-08-04T17:06:42.005Z,99650.84
2022-08-04T17:11:43.946Z,99644.25
2022-08-04T17:16:45.353Z,99645.34
2022-08-04T17:21:47.072Z,99645.59
2022-08-04T17:26:51.813Z,99643.69
2022-08-04T17:31:56.161Z,99642.03
2022-08-04T17:37:31.162Z,99641.16
2022-08-04T17:42:30.325Z,99645.09
2022-08-04T17:47:37.951Z,99646.75
2022-08-04T17:52:44.948Z,99640.94
2022-08-04T17:57:52.650Z,99648.38
2022-08-04T18:02:54.657Z,99652.25
2022-08-04T18:08:35.108Z,99650.06
2022-08-04T18:13:17.614Z,99645.13
2022-08-04T18:18:23.764Z,99653.09
2022-08-04T18:23:32.152Z,99651.72
2022-08-04T18:28:34.701Z,99658.66
2022-08-04T18:39:13.124Z,99656.41
2022-08-04T18:44:16.598Z,99670.19
2022-08-04T18:50:40.194Z,99671.34
2022-08-04T19:00:01.450Z,99680.97
2022-08-04T19:05:03.766Z,99682.88
2022-08-04T19:10:06.657Z,99686.22
2022-08-04T19:15:34.192Z,99695.31
2022-08-04T19:20:39.564Z,99694.50
2022-08-04T19:26:02.021Z,99694.19
2022-08-04T19:31:06.641Z,99693.91
2022-08-04T19:36:08.264Z,99697.25
2022-08-04T19:41:14.534Z,99689.81
2022-08-04T19:46:17.801Z,99690.63
2022-08-04T19:51:21.005Z,99689.25
2022-08-04T19:56:25.771Z,99688.97
2022-08-04T20:01:32.565Z,99698.34
2022-08-04T20:06:37.640Z,99701.94
2022-08-04T20:11:39.093Z,99694.00
2022-08-04T20:16:41.034Z,99699.75
2022-08-04T20:21:55.672Z,99696.16
2022-08-04T20:26:57.909Z,99702.50
2022-08-04T20:32:05.404Z,99701.41
2022-08-04T20:37:10.712Z,99700.06
2022-08-04T20:42:13.184Z,99701.38
2022-08-04T20:47:15.113Z,99701.94
2022-08-04T20:52:20.293Z,99695.31
2022-08-04T20:57:49.762Z,99699.72
2022-08-04T21:02:44.442Z,99700.09
2022-08-04T21:07:48.926Z,99699.19
2022-08-04T21:12:50.593Z,99699.75
2022-08-04T21:17:57.661Z,99700.06
2022-08-04T21:23:04.909Z,99698.09
2022-08-04T21:28:06.633Z,99706.09
2022-08-04T21:33:10.264Z,99696.19
2022-08-04T21:38:16.657Z,99695.91
2022-08-04T21:43:18.920Z,99700.28
2022-08-04T21:48:21.645Z,99690.91
2022-08-04T21:53:23.081Z,99690.19
2022-08-04T21:58:32.640Z,99689.31
2022-08-04T22:03:53.200Z,99686.84
2022-08-04T22:08:55.525Z,99688.72
2022-08-04T22:14:10.716Z,99682.63
2022-08-04T22:19:13.713Z,99684.00
2022-08-04T22:24:15.222Z,99678.59
2022-08-04T22:29:16.874Z,99675.28
2022-08-04T22:34:18.296Z,99677.50
2022-08-04T22:39:23.617Z,99674.81
2022-08-04T22:44:29.633Z,99679.22
2022-08-04T22:49:36.717Z,99675.00
2022-08-04T22:54:39.173Z,99683.06
2022-08-04T22:59:43.403Z,99675.63
2022-08-04T23:04:44.926Z,99676.16
2022-08-04T23:09:51.719Z,99677.31
2022-08-04T23:14:54.856Z,99675.06
2022-08-04T23:19:59.173Z,99676.47
2022-08-04T23:25:01.269Z,99676.16
2022-08-04T23:30:05.738Z,99672.31
2022-08-04T23:35:07.408Z,99665.69
2022-08-04T23:40:28.211Z,99656.09
2022-08-04T23:46:07.628Z,99659.41
2022-08-04T23:50:53.741Z,99653.31
2022-08-04T23:55:55.191Z,99661.28
